Decoded Metar for KS39 ( in ) (IATA:) | Meteo·Mobile Aviation Weather
aviador You're here:

KS39 Decoded Metar

in
Report Time2018-09-23 11:55:00
UTC Time2018-09-23 12:18:40
Flight Rules vfr VFR
WindCalm
Visibility9999 m
Phenomena:N/A
Clouds:N/A
Expected CloudBase > 800 ft AGL from Temp-Dew spread
CeilingNone
Temp01°C
Dew Point-1°C (87% RH)
AAT-1.1°C
QNH1019 hPa
Raw Report
KS39 231155Z AUTO 00000KT 10SM CLR 01/M01 A3010 RMK AO2=

Extra information for KS39:More info

Social comments